Bookmark and Share
Track history (hours):
 

MSC Cordoba

Last reported at 2014-Apr-13 05:10 UTC. Time now 2014-Apr-19 02:06 UTC.
Position N 40°29' E 026°55'.

Length 274 m; draft 13 m.

Type: Ship. MMSI: 636091473.

NotesDate/timePositionNaut miles runAvg speedWind from/ knotsBaromVisibWave heightAir tempDewpointWater temp
2014-Apr-13 05:10N 40°29' E 026°55'5912.6
2014-Apr-13 00:29N 39°53' E 025°53'16520.0
2014-Apr-12 16:13N 37°26' E 024°18'4120.3
2014-Apr-12 14:12N 36°52' E 023°48'29519.4
2014-Apr-11 23:00N 36°24' E 017°42'11420.7 240 / 161019.010.8 0.517.013.717.0
2014-Apr-11 17:28N 36°27' E 015°20'3920.5
2014-Apr-11 15:32N 36°28' E 014°31'2020.4
2014-Apr-11 14:34N 36°33' E 014°07'4820.7
2014-Apr-11 12:15N 36°44' E 013°09'1420.4
2014-Apr-11 11:33N 36°48' E 012°52'4320.3
2014-Apr-11 09:25N 37°01' E 012°00'1920.5
2014-Apr-11 08:31N 37°09' E 011°39'2020.6
2014-Apr-11 07:34N 37°19' E 011°18'2120.9
2014-Apr-11 06:33N 37°26' E 010°53'2121.1
2014-Apr-11 05:33N 37°33' E 010°28'6620.7
2014-Apr-11 02:21N 37°36' E 009°05'23220.7
2014-Apr-10 15:09N 37°05' E 004°16'46120.4
2014-Apr-09 16:33N 35°60' W 005°12'1515.2
2014-Apr-09 15:33N 35°57' W 005°31'1818.1
2014-Apr-09 14:33N 35°54' W 005°53'11519.2
2014-Apr-09 08:33N 36°18' W 008°12'1818.4
2014-Apr-09 07:33N 36°24' W 008°34'1918.7
2014-Apr-09 06:33N 36°30' W 008°56'1919.0
2014-Apr-09 05:33N 36°35' W 009°18'1919.0
2014-Apr-09 04:33N 36°49' W 009°34'2118.3
2014-Apr-09 03:26N 37°09' W 009°29'1719.5
2014-Apr-09 02:32N 37°24' W 009°17'1919.1
2014-Apr-09 01:34N 37°39' W 009°04'1616.1
2014-Apr-09 00:33N 37°52' W 008°52'4 3.2
2014-Apr-08 23:23N 37°56' W 008°51'0 0.0
2014-Apr-08 22:28N 37°56' W 008°51'0 0.0
2014-Apr-08 21:28N 37°56' W 008°51'0 0.0
2014-Apr-08 20:31N 37°56' W 008°51'0 0.0
2014-Apr-08 19:33N 37°56' W 008°51'0 0.0
2014-Apr-08 18:32N 37°56' W 008°51'0 0.0
2014-Apr-08 17:32N 37°56' W 008°51'0 0.0
2014-Apr-08 16:28N 37°56' W 008°51'0 0.0
2014-Apr-08 15:29N 37°56' W 008°51'0 0.0
2014-Apr-08 14:32N 37°56' W 008°51'0 0.0
2014-Apr-08 13:32N 37°56' W 008°51'0 0.0
2014-Apr-08 12:31N 37°56' W 008°51'0 0.0
2014-Apr-08 11:31N 37°56' W 008°51'1 0.6
2014-Apr-08 10:33N 37°56' W 008°50'6 5.9
2014-Apr-08 09:33N 37°54' W 008°58'1918.4
2014-Apr-08 08:33N 38°03' W 009°19'2019.6
2014-Apr-08 07:33N 38°14' W 009°39'1919.1
2014-Apr-08 06:33N 38°25' W 009°59'2119.4
2014-Apr-08 05:29N 38°45' W 010°08'2819.8
2014-Apr-08 04:04N 39°13' W 010°04'1319.6
2014-Apr-08 03:26N 39°25' W 010°05'75617.2
2014-Apr-06 07:33N 50°17' W 001°06'6220.7
2014-Apr-06 04:33N 50°36' E 000°28'1918.7
2014-Apr-06 03:33N 50°45' E 000°54'2517.3
2014-Apr-06 02:08N 51°01' E 001°22'1017.7
2014-Apr-06 01:33N 51°07' E 001°35'1615.6
2014-Apr-06 00:33N 51°19' E 001°51'1211.5
2014-Apr-05 23:33N 51°23' E 002°09'1414.2
2014-Apr-05 22:33N 51°23' E 002°31'1313.1
2014-Apr-05 21:33N 51°25' E 002°52'1514.7
2014-Apr-05 20:33N 51°25' E 003°15'1313.1
2014-Apr-05 19:33N 51°26' E 003°36'1211.6
2014-Apr-05 18:33N 51°21' E 003°53'7 6.6
2014-Apr-05 17:33N 51°22' E 004°04'8 8.2
2014-Apr-05 16:33N 51°21' E 004°16'0 0.4
2014-Apr-05 15:34N 51°21' E 004°17'2 1.9
2014-Apr-05 14:33N 51°20' E 004°19'0 0.2
2014-Apr-05 13:32N 51°20' E 004°20'0 0.0
2014-Apr-05 12:32N 51°19' E 004°20'0 0.0
2014-Apr-05 11:13N 51°20' E 004°20'0 0.0
2014-Apr-05 10:28N 51°19' E 004°20'0 0.0
2014-Apr-05 09:31N 51°19' E 004°20'0 0.0
2014-Apr-05 08:33N 51°20' E 004°20'0 0.0
2014-Apr-05 07:33N 51°20' E 004°20'0 0.0
2014-Apr-05 06:29N 51°20' E 004°20'0 0.0
2014-Apr-05 05:32N 51°20' E 004°20'0 0.0
2014-Apr-05 04:28N 51°20' E 004°20'0 0.0
2014-Apr-05 03:31N 51°20' E 004°20'0 0.0
2014-Apr-05 02:31N 51°19' E 004°20'0 0.0
2014-Apr-05 01:33N 51°19' E 004°20'0 0.0
2014-Apr-05 00:33N 51°20' E 004°20'0 0.0
2014-Apr-04 23:33N 51°20' E 004°20'0 0.0
2014-Apr-04 22:32N 51°20' E 004°20'0 0.0
2014-Apr-04 21:31N 51°20' E 004°20'0 0.0
2014-Apr-04 20:31N 51°19' E 004°20'0 0.0
2014-Apr-04 19:31N 51°20' E 004°20'0 0.0
2014-Apr-04 18:33N 51°20' E 004°20'0 0.0
2014-Apr-04 17:33N 51°20' E 004°20'0 0.0
2014-Apr-04 16:26N 51°20' E 004°20'0 0.0
2014-Apr-04 15:32N 51°20' E 004°20'0 0.0
2014-Apr-04 14:31N 51°19' E 004°20'0 0.0
2014-Apr-04 13:26N 51°20' E 004°20'0 0.0
2014-Apr-04 12:29N 51°19' E 004°20'0 0.0
2014-Apr-04 11:29N 51°19' E 004°20'0 0.0
2014-Apr-04 10:31N 51°19' E 004°20'0 0.0
2014-Apr-04 09:33N 51°19' E 004°20'0 0.0
2014-Apr-04 08:33N 51°20' E 004°20'0 0.0
2014-Apr-04 07:30N 51°20' E 004°20'0 0.0
2014-Apr-04 06:26N 51°20' E 004°20'0 0.5
2014-Apr-04 05:33N 51°19' E 004°19'2 1.7
2014-Apr-04 04:34N 51°21' E 004°17'1 0.6
2014-Apr-04 03:34N 51°21' E 004°16'7 7.4
2014-Apr-04 02:34N 51°22' E 004°05'10 9.5
2014-Apr-04 01:34N 51°21' E 003°50'1111.1
2014-Apr-04 00:33N 51°25' E 003°34'1615.7
2014-Apr-03 23:34N 51°24' E 003°09'10 9.7
2014-Apr-03 22:33N 51°34' E 003°09'1413.6
2014-Apr-03 21:31N 51°47' E 003°16'9017.8
2014-Apr-03 16:29N 53°08' E 004°19'1819.5
2014-Apr-03 15:33N 53°24' E 004°32'1919.2
2014-Apr-03 14:33N 53°35' E 004°60'2020.4
2014-Apr-03 13:33N 53°41' E 005°32'2019.9
2014-Apr-03 12:33N 53°47' E 006°05'1918.8
2014-Apr-03 11:33N 53°53' E 006°35'1818.2
2014-Apr-03 10:33N 53°57' E 007°05'1818.0
2014-Apr-03 09:33N 54°01' E 007°35'1515.4
2014-Apr-03 08:33N 54°01' E 008°01'1414.4
2014-Apr-03 07:34N 53°59' E 008°25'1514.8
2014-Apr-03 06:34N 53°51' E 008°46'1413.8
2014-Apr-03 05:33N 53°53' E 009°09'  

Dump ship's entire track history

sailing weather and tide predictions

MSC Cordoba — A8OF8 — position and weather